createdAt,value
2019-05-23T00:02:14.176Z,5.17
2019-05-23T00:04:48.213Z,5.17
2019-05-23T00:07:18.521Z,6.40
2019-05-23T00:09:47.118Z,4.90
2019-05-23T00:12:45.676Z,5.47
2019-05-23T00:15:22.760Z,4.30
2019-05-23T00:17:50.640Z,4.73
2019-05-23T00:20:20.379Z,5.40
2019-05-23T00:22:48.850Z,5.03
2019-05-23T00:25:19.669Z,4.80
2019-05-23T00:27:49.211Z,4.90
2019-05-23T00:30:24.672Z,5.13
2019-05-23T00:32:56.305Z,6.03
2019-05-23T00:35:26.295Z,4.80
2019-05-23T00:37:55.385Z,5.00
2019-05-23T00:40:23.158Z,7.03
2019-05-23T00:42:51.672Z,5.03
2019-05-23T00:45:22.568Z,5.47
2019-05-23T00:47:52.912Z,4.70
2019-05-23T00:50:24.085Z,5.37
2019-05-23T00:52:54.796Z,6.00
2019-05-23T00:55:23.574Z,5.20
2019-05-23T00:57:52.616Z,4.60
2019-05-23T01:00:24.020Z,5.67
2019-05-23T01:02:53.843Z,5.07
2019-05-23T01:05:22.601Z,4.90
2019-05-23T01:07:52.353Z,5.27
2019-05-23T01:10:24.531Z,5.87
2019-05-23T01:12:53.611Z,4.70
2019-05-23T01:15:24.021Z,5.10
2019-05-23T01:17:52.917Z,4.80
2019-05-23T01:20:26.211Z,5.20
2019-05-23T01:22:55.384Z,5.00
2019-05-23T01:25:28.818Z,4.10
2019-05-23T01:27:59.389Z,4.93
2019-05-23T01:30:30.952Z,5.90
2019-05-23T01:32:59.456Z,4.73
2019-05-23T01:35:27.820Z,4.60
2019-05-23T01:38:04.033Z,6.13
2019-05-23T01:40:33.161Z,4.27
2019-05-23T01:43:01.767Z,6.20
2019-05-23T01:45:32.661Z,6.30
2019-05-23T01:48:00.706Z,5.60
2019-05-23T01:50:28.567Z,4.93
2019-05-23T01:52:57.374Z,4.77
2019-05-23T01:55:27.097Z,5.30
2019-05-23T01:57:55.448Z,5.80
2019-05-23T02:00:27.630Z,5.20
2019-05-23T02:02:56.342Z,5.80
2019-05-23T02:05:25.752Z,4.77
2019-05-23T02:07:54.735Z,4.43
2019-05-23T02:10:23.098Z,4.57
2019-05-23T02:12:51.913Z,6.00
2019-05-23T02:15:20.551Z,5.70
2019-05-23T02:17:48.492Z,7.43
2019-05-23T02:20:18.769Z,8.20
2019-05-23T02:22:48.056Z,4.90
2019-05-23T02:25:18.971Z,5.20
2019-05-23T02:27:47.774Z,6.43
2019-05-23T02:30:32.880Z,6.63
2019-05-23T02:32:49.545Z,5.37
2019-05-23T02:35:18.158Z,5.20
2019-05-23T02:38:01.867Z,6.03
2019-05-23T02:40:55.561Z,5.33
2019-05-23T02:43:25.991Z,4.90
2019-05-23T02:45:56.622Z,5.33
2019-05-23T02:48:31.113Z,6.67
2019-05-23T02:51:03.227Z,5.90
2019-05-23T02:53:35.037Z,4.97
2019-05-23T02:56:07.445Z,7.27
2019-05-23T02:58:52.520Z,6.57
2019-05-23T03:02:26.905Z,4.00
2019-05-23T03:04:56.380Z,6.00
2019-05-23T03:07:27.491Z,5.00
2019-05-23T03:09:56.691Z,5.73
2019-05-23T03:12:27.531Z,5.70
2019-05-23T03:14:58.377Z,4.60
2019-05-23T03:17:28.676Z,6.53
2019-05-23T03:19:58.696Z,6.33
2019-05-23T03:22:48.278Z,5.13
2019-05-23T03:25:23.198Z,6.17
2019-05-23T03:27:54.599Z,5.00
2019-05-23T03:30:27.206Z,4.93
2019-05-23T03:32:59.843Z,7.67
2019-05-23T03:35:33.524Z,5.10
2019-05-23T03:38:02.017Z,5.97
2019-05-23T03:40:31.031Z,6.30
2019-05-23T03:43:00.645Z,5.00
2019-05-23T03:45:31.117Z,5.50
2019-05-23T03:48:00.121Z,5.80
2019-05-23T03:50:27.651Z,7.00
2019-05-23T03:52:56.394Z,6.10
2019-05-23T03:55:24.867Z,5.90
2019-05-23T03:57:54.492Z,6.70
2019-05-23T04:00:32.359Z,9.40
2019-05-23T04:03:02.294Z,5.07
2019-05-23T04:05:31.158Z,6.00
2019-05-23T04:08:00.045Z,5.00
2019-05-23T04:10:28.341Z,7.20
2019-05-23T04:12:58.482Z,6.37
2019-05-23T04:15:26.828Z,5.63
2019-05-23T04:17:55.219Z,6.23
2019-05-23T04:20:23.794Z,6.70
2019-05-23T04:22:52.038Z,6.67
2019-05-23T04:25:20.781Z,7.63
2019-05-23T04:27:49.708Z,6.00
2019-05-23T04:30:18.075Z,5.67
2019-05-23T04:32:47.821Z,5.80
2019-05-23T04:35:16.450Z,6.77
2019-05-23T04:37:45.350Z,5.37
2019-05-23T04:40:13.594Z,4.80
2019-05-23T04:42:41.337Z,6.67
2019-05-23T04:45:09.565Z,7.13
2019-05-23T04:47:38.828Z,7.20
2019-05-23T04:50:09.581Z,5.17
2019-05-23T04:52:38.317Z,7.10
2019-05-23T04:55:08.435Z,6.37
2019-05-23T04:57:40.167Z,6.23
2019-05-23T05:00:10.731Z,7.73
2019-05-23T05:02:39.511Z,6.27
2019-05-23T05:05:08.066Z,8.43
2019-05-23T05:07:36.973Z,7.33
2019-05-23T05:10:05.660Z,6.10
2019-05-23T05:12:33.938Z,8.57
2019-05-23T05:15:04.964Z,6.67
2019-05-23T05:17:33.200Z,7.30
2019-05-23T05:20:00.977Z,6.80
2019-05-23T05:22:28.893Z,7.13
2019-05-23T05:24:56.986Z,7.90
2019-05-23T05:27:25.809Z,9.80
2019-05-23T05:29:53.912Z,7.67
2019-05-23T05:32:23.238Z,9.80
2019-05-23T05:34:51.309Z,7.57
2019-05-23T05:37:19.036Z,7.73
2019-05-23T05:39:48.838Z,7.60
2019-05-23T05:42:17.463Z,11.23
2019-05-23T05:44:45.394Z,8.10
2019-05-23T05:47:14.401Z,10.20
2019-05-23T05:49:42.434Z,8.90
2019-05-23T05:52:11.197Z,10.70
2019-05-23T05:54:39.552Z,7.70
2019-05-23T05:57:06.857Z,9.67
2019-05-23T05:59:35.100Z,9.50
2019-05-23T06:02:05.759Z,8.30
2019-05-23T06:04:35.211Z,8.10
2019-05-23T06:07:16.212Z,9.10
2019-05-23T06:09:44.334Z,9.73
2019-05-23T06:12:14.460Z,8.40
2019-05-23T06:14:46.733Z,8.67
2019-05-23T06:17:15.895Z,11.30
2019-05-23T06:19:44.052Z,8.70
2019-05-23T06:22:13.426Z,8.93
2019-05-23T06:24:49.728Z,9.37
2019-05-23T06:27:13.810Z,10.40
2019-05-23T06:29:41.958Z,10.63
2019-05-23T06:32:13.211Z,9.10
2019-05-23T06:34:43.329Z,9.97
2019-05-23T06:37:11.463Z,10.40
2019-05-23T06:39:42.065Z,8.63
2019-05-23T06:42:10.785Z,8.07
2019-05-23T06:44:39.293Z,9.17
2019-05-23T06:47:08.479Z,8.60
2019-05-23T06:49:36.846Z,9.60
2019-05-23T06:52:05.354Z,7.73
2019-05-23T06:54:33.701Z,7.93
2019-05-23T06:57:02.460Z,8.47
2019-05-23T06:59:30.788Z,7.97
2019-05-23T07:01:59.145Z,8.23
2019-05-23T07:04:27.957Z,8.30
2019-05-23T07:06:56.542Z,6.50
2019-05-23T07:09:25.031Z,8.23
2019-05-23T07:11:57.246Z,8.13
2019-05-23T07:14:25.281Z,8.03
2019-05-23T07:16:53.783Z,7.20
2019-05-23T07:19:21.827Z,8.70
2019-05-23T07:21:51.029Z,8.20
2019-05-23T07:24:19.493Z,7.13
2019-05-23T07:26:48.684Z,8.63
2019-05-23T07:29:18.105Z,9.97
2019-05-23T07:31:46.685Z,8.27
2019-05-23T07:34:15.985Z,7.80
2019-05-23T07:36:44.214Z,9.10
2019-05-23T07:39:13.169Z,7.43
2019-05-23T07:41:41.566Z,7.17
2019-05-23T07:44:10.361Z,7.47
2019-05-23T07:46:39.417Z,8.10
2019-05-23T07:49:07.480Z,7.10
2019-05-23T07:51:35.676Z,7.20
2019-05-23T07:54:23.907Z,7.10
2019-05-23T07:56:52.713Z,8.00
2019-05-23T07:59:20.750Z,7.63
2019-05-23T08:01:54.401Z,7.13
2019-05-23T08:04:25.027Z,7.97
2019-05-23T08:06:54.124Z,7.17
2019-05-23T08:09:23.196Z,6.50
2019-05-23T08:11:51.478Z,7.27
2019-05-23T08:14:20.072Z,7.50
2019-05-23T08:16:48.725Z,7.10
2019-05-23T08:19:19.599Z,6.60
2019-05-23T08:21:48.488Z,6.57
2019-05-23T08:24:16.540Z,6.73
2019-05-23T08:26:47.082Z,6.60
2019-05-23T08:29:26.111Z,6.87
2019-05-23T08:31:45.582Z,7.40
2019-05-23T08:34:14.604Z,6.83
2019-05-23T08:36:43.061Z,6.53
2019-05-23T08:39:13.756Z,6.83
2019-05-23T08:41:42.475Z,6.50
2019-05-23T08:44:11.566Z,5.80
2019-05-23T08:46:40.627Z,5.50
2019-05-23T08:49:10.369Z,5.70
2019-05-23T08:51:38.491Z,6.40
2019-05-23T08:54:07.038Z,7.07
2019-05-23T08:56:36.281Z,6.83
2019-05-23T08:59:06.186Z,10.27
2019-05-23T09:01:34.407Z,6.73
2019-05-23T09:04:02.289Z,6.70
2019-05-23T09:06:30.586Z,7.70
2019-05-23T09:09:04.099Z,8.33
2019-05-23T09:11:34.366Z,8.50
2019-05-23T09:14:04.342Z,7.37
2019-05-23T09:16:33.344Z,7.90
2019-05-23T09:19:02.030Z,6.80
2019-05-23T09:21:29.889Z,7.47
2019-05-23T09:23:57.679Z,6.27
2019-05-23T09:26:26.108Z,7.43
2019-05-23T09:28:54.603Z,10.10
2019-05-23T09:31:23.601Z,7.80
2019-05-23T09:33:52.220Z,7.33
2019-05-23T09:36:20.771Z,6.37
2019-05-23T09:38:49.570Z,8.17
2019-05-23T09:41:17.842Z,7.20
2019-05-23T09:43:46.518Z,7.10
2019-05-23T09:46:15.594Z,7.03
2019-05-23T09:48:43.752Z,6.80
2019-05-23T09:51:11.777Z,8.70
2019-05-23T09:53:46.326Z,9.77
2019-05-23T09:56:11.073Z,7.13
2019-05-23T09:58:39.451Z,7.80
2019-05-23T10:01:09.185Z,9.10
2019-05-23T10:03:37.646Z,8.73
2019-05-23T10:06:06.342Z,10.00
2019-05-23T10:08:35.573Z,6.60
2019-05-23T10:11:03.905Z,8.60
2019-05-23T10:13:39.129Z,9.53
2019-05-23T10:16:05.598Z,7.50
2019-05-23T10:18:34.048Z,8.37
2019-05-23T10:21:02.542Z,9.73
2019-05-23T10:23:31.040Z,9.00
2019-05-23T10:26:00.019Z,10.53
2019-05-23T10:28:28.807Z,8.90
2019-05-23T10:30:57.561Z,11.70
2019-05-23T10:33:25.996Z,10.53
2019-05-23T10:36:00.350Z,9.50
2019-05-23T10:38:28.688Z,10.97
2019-05-23T10:40:55.940Z,12.50
2019-05-23T10:43:25.520Z,11.43
2019-05-23T10:45:53.285Z,13.60
2019-05-23T10:48:22.216Z,10.40
2019-05-23T10:50:50.144Z,7.63
2019-05-23T10:53:18.681Z,10.87
2019-05-23T10:55:47.245Z,8.90
2019-05-23T10:58:16.342Z,8.87
2019-05-23T11:00:46.905Z,7.77
2019-05-23T11:03:15.740Z,9.03
2019-05-23T11:05:45.965Z,6.83
2019-05-23T11:08:14.949Z,6.73
2019-05-23T11:10:43.464Z,8.97
2019-05-23T11:13:11.876Z,9.30
2019-05-23T11:15:40.006Z,9.60
2019-05-23T11:18:09.901Z,5.73
2019-05-23T11:20:37.796Z,10.67
2019-05-23T11:23:06.566Z,7.47
2019-05-23T11:25:35.934Z,9.13
2019-05-23T11:28:04.941Z,9.90
2019-05-23T11:30:43.475Z,9.00
2019-05-23T11:33:17.583Z,8.20
2019-05-23T11:35:52.965Z,9.10
2019-05-23T11:38:25.236Z,8.70
2019-05-23T11:40:55.330Z,8.97
2019-05-23T11:43:24.475Z,8.20
2019-05-23T11:46:15.106Z,7.00
2019-05-23T11:48:46.984Z,9.30
2019-05-23T11:51:24.489Z,6.40
2019-05-23T11:54:05.858Z,9.17
2019-05-23T11:56:23.705Z,10.13
2019-05-23T11:58:52.295Z,10.30
2019-05-23T12:01:24.795Z,7.20
2019-05-23T12:03:59.300Z,7.30
2019-05-23T12:06:56.574Z,9.33
2019-05-23T12:09:27.058Z,6.80
2019-05-23T12:11:57.504Z,7.87
2019-05-23T12:14:25.473Z,8.43
2019-05-23T12:16:55.881Z,9.97
2019-05-23T12:19:24.369Z,8.50
2019-05-23T12:21:53.369Z,7.27
2019-05-23T12:24:21.737Z,8.40
2019-05-23T12:26:50.073Z,9.27
2019-05-23T12:29:20.445Z,8.50
2019-05-23T12:31:49.936Z,6.73
2019-05-23T12:34:18.169Z,9.47
2019-05-23T12:36:45.431Z,8.90
2019-05-23T12:39:13.767Z,9.20
2019-05-23T12:41:42.454Z,7.40
2019-05-23T12:44:11.221Z,7.00
2019-05-23T12:46:39.561Z,7.90
2019-05-23T12:49:26.281Z,8.37
2019-05-23T12:51:56.324Z,6.93
2019-05-23T12:54:25.518Z,7.53
2019-05-23T12:56:58.623Z,7.07
2019-05-23T12:59:26.793Z,7.73
2019-05-23T13:01:55.957Z,7.47
2019-05-23T13:04:27.068Z,9.73
2019-05-23T13:06:55.715Z,6.60
2019-05-23T13:09:24.905Z,7.20
2019-05-23T13:12:03.632Z,7.70
2019-05-23T13:14:32.242Z,7.30
2019-05-23T13:17:01.618Z,7.40
2019-05-23T13:19:30.621Z,8.27
2019-05-23T13:21:59.430Z,6.70
2019-05-23T13:24:28.505Z,7.30
2019-05-23T13:26:56.924Z,6.53
2019-05-23T13:29:27.507Z,7.17
2019-05-23T13:31:56.286Z,7.37
2019-05-23T13:34:24.490Z,6.60
2019-05-23T13:36:52.370Z,8.03
2019-05-23T13:39:21.602Z,6.40
2019-05-23T13:41:49.285Z,7.00
2019-05-23T13:44:33.121Z,6.53
2019-05-23T13:46:52.276Z,8.03
2019-05-23T13:49:20.000Z,7.57
2019-05-23T13:51:48.715Z,7.40
2019-05-23T13:54:16.869Z,5.50
2019-05-23T13:56:47.715Z,7.70
2019-05-23T13:59:16.099Z,6.30
2019-05-23T14:01:44.764Z,6.90
2019-05-23T14:04:13.584Z,8.20
2019-05-23T14:06:42.591Z,5.33
2019-05-23T14:09:12.008Z,6.80
2019-05-23T14:11:40.099Z,11.40
2019-05-23T14:14:12.522Z,7.50
2019-05-23T14:16:59.715Z,7.10
2019-05-23T14:19:31.972Z,8.67
2019-05-23T14:22:05.600Z,8.83
2019-05-23T14:24:37.678Z,6.43
2019-05-23T14:27:30.234Z,5.10
2019-05-23T14:30:04.865Z,8.20
2019-05-23T14:32:46.663Z,6.63
2019-05-23T14:35:17.371Z,6.90
2019-05-23T14:37:47.008Z,7.57
2019-05-23T14:40:16.529Z,7.50
2019-05-23T14:43:08.294Z,8.30
2019-05-23T14:45:45.113Z,8.93
2019-05-23T14:48:33.062Z,8.43
2019-05-23T14:51:24.281Z,11.10
2019-05-23T14:53:55.888Z,7.70
2019-05-23T14:56:23.875Z,7.10
2019-05-23T14:58:52.223Z,8.57
2019-05-23T15:01:22.856Z,7.90
2019-05-23T15:03:51.377Z,6.27
2019-05-23T15:06:28.758Z,7.13
2019-05-23T15:08:57.215Z,9.20
2019-05-23T15:11:28.546Z,7.50
2019-05-23T15:13:58.621Z,7.60
2019-05-23T15:16:26.675Z,7.10
2019-05-23T15:18:54.911Z,8.30
2019-05-23T15:21:24.932Z,5.87
2019-05-23T15:23:52.473Z,8.27
2019-05-23T15:26:23.521Z,6.10
2019-05-23T15:28:51.671Z,8.50
2019-05-23T15:31:23.474Z,7.90
2019-05-23T15:33:55.383Z,7.27
2019-05-23T15:36:25.210Z,7.70
2019-05-23T15:39:08.076Z,10.07
2019-05-23T15:41:22.964Z,9.40
2019-05-23T15:43:51.288Z,7.20
2019-05-23T15:46:18.794Z,7.23
2019-05-23T15:48:49.400Z,8.67
2019-05-23T15:51:22.744Z,8.00
2019-05-23T15:53:56.633Z,6.53
2019-05-23T15:56:47.310Z,6.70
2019-05-23T15:59:39.659Z,5.83
2019-05-23T16:02:26.612Z,6.00
2019-05-23T16:05:04.464Z,6.20
2019-05-23T16:07:32.410Z,7.30
2019-05-23T16:10:04.154Z,7.70
2019-05-23T16:12:33.156Z,9.47
2019-05-23T16:15:01.735Z,7.70
2019-05-23T16:17:32.131Z,7.00
2019-05-23T16:20:00.912Z,8.50
2019-05-23T16:22:29.660Z,8.17
2019-05-23T16:24:59.691Z,6.80
2019-05-23T16:27:30.470Z,6.57
2019-05-23T16:29:59.576Z,6.50
2019-05-23T16:32:28.512Z,7.67
2019-05-23T16:34:56.549Z,7.70
2019-05-23T16:37:26.298Z,7.87
2019-05-23T16:39:56.686Z,7.47
2019-05-23T16:42:26.113Z,10.20
2019-05-23T16:44:54.252Z,9.30
2019-05-23T16:47:22.782Z,9.03
2019-05-23T16:49:51.103Z,9.20
2019-05-23T16:52:23.222Z,8.70
2019-05-23T16:54:55.960Z,10.13
2019-05-23T16:57:32.151Z,8.50
2019-05-23T17:00:23.186Z,6.70
2019-05-23T17:03:18.226Z,9.07
2019-05-23T17:06:08.789Z,8.57
2019-05-23T17:09:03.913Z,8.43
2019-05-23T17:11:40.002Z,8.77
2019-05-23T17:14:17.231Z,6.50
2019-05-23T17:17:08.657Z,7.93
2019-05-23T17:19:43.364Z,7.80
2019-05-23T17:22:19.916Z,8.80
2019-05-23T17:24:59.011Z,8.33
2019-05-23T17:27:52.766Z,7.33
2019-05-23T17:30:27.654Z,5.70
2019-05-23T17:32:55.494Z,8.00
2019-05-23T17:35:30.835Z,6.00
2019-05-23T17:38:01.988Z,7.40
2019-05-23T17:40:32.114Z,11.63
2019-05-23T17:42:59.968Z,9.70
2019-05-23T17:45:35.284Z,10.40
2019-05-23T17:48:06.716Z,7.57
2019-05-23T17:50:35.085Z,7.80
2019-05-23T17:53:04.229Z,9.23
2019-05-23T17:55:32.531Z,13.03
2019-05-23T17:58:05.548Z,10.63
2019-05-23T18:00:38.772Z,8.43
2019-05-23T18:03:11.082Z,7.10
2019-05-23T18:05:40.703Z,6.47
2019-05-23T18:08:10.711Z,7.53
2019-05-23T18:10:45.274Z,7.77
2019-05-23T18:13:12.684Z,6.37
2019-05-23T18:15:42.477Z,6.83
2019-05-23T18:18:10.846Z,7.30
2019-05-23T18:20:41.191Z,6.67
2019-05-23T18:23:11.509Z,7.20
2019-05-23T18:25:41.777Z,7.43
2019-05-23T18:28:13.633Z,10.03
2019-05-23T18:30:51.965Z,6.30
2019-05-23T18:33:21.256Z,6.37
2019-05-23T18:35:49.266Z,6.93
2019-05-23T18:38:18.613Z,7.20
2019-05-23T18:41:02.302Z,6.50
2019-05-23T18:43:21.117Z,6.37
2019-05-23T18:45:58.095Z,5.97
2019-05-23T18:48:26.850Z,7.63
2019-05-23T18:50:57.470Z,6.63
2019-05-23T18:53:26.288Z,6.70
2019-05-23T18:55:53.793Z,11.57
2019-05-23T18:58:22.899Z,7.97
2019-05-23T19:01:13.965Z,8.17
2019-05-23T19:03:42.009Z,7.40
2019-05-23T19:06:10.223Z,9.00
2019-05-23T19:08:38.243Z,8.50
2019-05-23T19:11:20.238Z,5.90
2019-05-23T19:13:40.947Z,8.30
2019-05-23T19:16:09.605Z,5.70
2019-05-23T19:18:38.278Z,6.07
2019-05-23T19:21:07.840Z,8.03
2019-05-23T19:23:37.384Z,5.73
2019-05-23T19:26:08.594Z,5.97
2019-05-23T19:28:36.783Z,6.40
2019-05-23T19:31:07.809Z,7.10
2019-05-23T19:33:36.124Z,6.83
2019-05-23T19:36:06.531Z,5.93
2019-05-23T19:38:34.627Z,5.90
2019-05-23T19:41:05.052Z,4.60
2019-05-23T19:43:33.863Z,6.27
2019-05-23T19:46:03.630Z,5.80
2019-05-23T19:48:32.057Z,6.20
2019-05-23T19:51:00.967Z,4.93
2019-05-23T19:53:29.905Z,5.60
2019-05-23T19:55:58.698Z,5.47
2019-05-23T19:58:27.351Z,5.47
2019-05-23T20:00:56.406Z,5.83
2019-05-23T20:03:24.581Z,6.07
2019-05-23T20:05:53.523Z,5.63
2019-05-23T20:08:21.573Z,5.60
2019-05-23T20:10:49.965Z,5.47
2019-05-23T20:13:20.122Z,8.37
2019-05-23T20:15:48.542Z,6.90
2019-05-23T20:18:20.915Z,6.43
2019-05-23T20:20:49.304Z,5.80
2019-05-23T20:23:20.181Z,5.67
2019-05-23T20:25:48.316Z,6.93
2019-05-23T20:28:16.163Z,6.67
2019-05-23T20:30:52.787Z,6.90
2019-05-23T20:33:22.584Z,5.90
2019-05-23T20:35:51.241Z,6.37
2019-05-23T20:38:22.714Z,5.80
2019-05-23T20:40:51.422Z,6.00
2019-05-23T20:43:19.909Z,6.07
2019-05-23T20:45:48.309Z,6.30
2019-05-23T20:48:16.785Z,4.80
2019-05-23T20:50:44.527Z,5.57
2019-05-23T20:53:13.013Z,5.50
2019-05-23T20:55:40.754Z,4.93
2019-05-23T20:58:09.390Z,5.20
2019-05-23T21:01:00.721Z,6.03
2019-05-23T21:03:30.917Z,7.80
2019-05-23T21:05:59.080Z,6.43
2019-05-23T21:08:26.839Z,5.57
2019-05-23T21:10:55.727Z,5.17
2019-05-23T21:13:30.558Z,5.20
2019-05-23T21:15:58.941Z,5.77
2019-05-23T21:18:27.389Z,5.60
2019-05-23T21:20:55.028Z,5.67
2019-05-23T21:23:23.551Z,6.40
2019-05-23T21:25:58.585Z,5.03
2019-05-23T21:28:26.246Z,5.50
2019-05-23T21:30:54.401Z,5.70
2019-05-23T21:33:23.528Z,6.50
2019-05-23T21:35:51.836Z,6.37
2019-05-23T21:38:21.019Z,6.03
2019-05-23T21:40:48.863Z,5.80
2019-05-23T21:43:16.942Z,5.60
2019-05-23T21:45:45.518Z,6.67
2019-05-23T21:48:13.531Z,5.20
2019-05-23T21:50:42.613Z,6.20
2019-05-23T21:53:11.733Z,6.73
2019-05-23T21:55:41.869Z,5.37
2019-05-23T21:58:11.760Z,6.50
2019-05-23T22:01:25.280Z,5.80
2019-05-23T22:04:13.793Z,5.93
2019-05-23T22:06:46.433Z,6.13
2019-05-23T22:09:14.993Z,5.90
2019-05-23T22:11:42.911Z,6.30
2019-05-23T22:14:12.418Z,5.93
2019-05-23T22:16:41.221Z,5.50
2019-05-23T22:19:12.589Z,5.20
2019-05-23T22:21:40.274Z,7.00
2019-05-23T22:24:09.255Z,5.50
2019-05-23T22:26:37.636Z,5.17
2019-05-23T22:29:05.974Z,6.10
2019-05-23T22:31:35.215Z,5.30
2019-05-23T22:34:13.310Z,4.70
2019-05-23T22:36:42.296Z,5.57
2019-05-23T22:39:10.798Z,5.40
2019-05-23T22:41:40.530Z,5.23
2019-05-23T22:44:09.124Z,5.17
2019-05-23T22:46:37.649Z,5.70
2019-05-23T22:49:05.348Z,5.20
2019-05-23T22:51:34.087Z,5.33
2019-05-23T22:54:03.619Z,5.27
2019-05-23T22:56:32.002Z,5.50
2019-05-23T22:58:59.618Z,5.70
2019-05-23T23:01:28.857Z,4.77
2019-05-23T23:03:57.765Z,6.03
2019-05-23T23:06:26.151Z,6.87
2019-05-23T23:08:54.184Z,5.73
2019-05-23T23:11:22.181Z,5.40
2019-05-23T23:13:50.263Z,5.20
2019-05-23T23:16:19.136Z,5.27
2019-05-23T23:18:47.314Z,5.90
2019-05-23T23:21:15.073Z,5.10
2019-05-23T23:23:43.029Z,6.00
2019-05-23T23:26:11.135Z,4.60
2019-05-23T23:28:38.908Z,4.67
2019-05-23T23:31:06.636Z,4.47
2019-05-23T23:33:36.051Z,5.17
2019-05-23T23:36:03.712Z,5.10
2019-05-23T23:38:33.001Z,5.50
2019-05-23T23:41:01.503Z,4.40
2019-05-23T23:43:37.294Z,5.37
2019-05-23T23:46:40.052Z,4.50
2019-05-23T23:49:27.279Z,5.60
2019-05-23T23:52:14.284Z,4.73
2019-05-23T23:55:00.870Z,6.57
2019-05-23T23:57:46.880Z,4.73
